createdAt,value
2022-10-25T00:03:56.815Z,86.98
2022-10-25T00:08:57.644Z,87.06
2022-10-25T00:14:01.708Z,87.15
2022-10-25T00:19:02.517Z,87.50
2022-10-25T00:24:03.295Z,87.80
2022-10-25T00:29:05.464Z,88.43
2022-10-25T00:34:06.275Z,88.92
2022-10-25T00:39:07.164Z,88.42
2022-10-25T00:45:01.356Z,88.41
2022-10-25T00:50:11.935Z,88.00
2022-10-25T00:55:16.674Z,88.17
2022-10-25T01:00:19.706Z,88.46
2022-10-25T01:05:22.778Z,88.95
2022-10-25T01:10:23.744Z,87.93
2022-10-25T01:15:29.977Z,88.19
2022-10-25T01:21:01.115Z,87.63
2022-10-25T01:26:24.901Z,88.12
2022-10-25T01:31:32.693Z,88.32
2022-10-25T01:36:43.800Z,88.64
2022-10-25T01:41:54.580Z,88.40
2022-10-25T01:47:03.582Z,88.47
2022-10-25T01:52:05.089Z,88.80
2022-10-25T01:57:23.937Z,89.78
2022-10-25T02:02:31.707Z,89.20
2022-10-25T02:07:38.663Z,88.67
2022-10-25T02:12:51.860Z,89.59
2022-10-25T02:17:58.379Z,88.70
2022-10-25T02:23:02.161Z,88.95
2022-10-25T02:28:06.464Z,90.18
2022-10-25T02:33:08.781Z,90.32
2022-10-25T02:38:10.011Z,89.79
2022-10-25T02:43:10.827Z,89.22
2022-10-25T02:48:12.992Z,89.06
2022-10-25T02:53:13.815Z,88.84
2022-10-25T02:58:14.608Z,88.75
2022-10-25T03:03:16.743Z,87.47
2022-10-25T03:08:17.580Z,88.31
2022-10-25T03:13:18.580Z,88.16
2022-10-25T03:18:20.781Z,88.55
2022-10-25T03:23:21.556Z,88.38
2022-10-25T03:28:23.049Z,87.88
2022-10-25T03:33:26.459Z,87.08
2022-10-25T03:38:27.350Z,88.75
2022-10-25T03:43:28.584Z,86.85
2022-10-25T03:48:30.768Z,85.57
2022-10-25T03:53:31.668Z,83.90
2022-10-25T03:58:32.847Z,84.84
2022-10-25T04:03:35.049Z,82.12
2022-10-25T04:08:35.896Z,82.50
2022-10-25T04:13:36.723Z,81.01
2022-10-25T04:18:38.943Z,80.41
2022-10-25T04:23:39.772Z,80.35
2022-10-25T04:28:40.542Z,79.90
2022-10-25T04:33:45.151Z,78.16
2022-10-25T04:38:49.245Z,77.21
2022-10-25T04:43:52.269Z,76.81
2022-10-25T04:48:54.442Z,77.36
2022-10-25T04:53:55.324Z,77.47
2022-10-25T04:58:56.128Z,76.31
2022-10-25T05:03:58.248Z,76.32
2022-10-25T05:08:59.044Z,77.50
2022-10-25T05:13:59.817Z,77.98
2022-10-25T05:19:02.244Z,78.88
2022-10-25T05:24:03.505Z,80.11
2022-10-25T05:29:06.715Z,80.56
2022-10-25T05:34:12.250Z,81.11
2022-10-25T05:39:13.080Z,82.15
2022-10-25T05:44:14.971Z,81.80
2022-10-25T05:49:17.162Z,83.65
2022-10-25T05:54:17.994Z,82.07
2022-10-25T05:59:18.880Z,82.80
2022-10-25T06:04:21.012Z,81.96
2022-10-25T06:09:21.992Z,82.37
2022-10-25T06:14:22.845Z,81.65
2022-10-25T06:19:25.097Z,81.47
2022-10-25T06:24:26.145Z,82.02
2022-10-25T06:29:26.958Z,81.65
2022-10-25T06:34:29.102Z,80.38
2022-10-25T06:39:29.935Z,78.79
2022-10-25T06:44:30.761Z,78.53
2022-10-25T06:49:32.899Z,78.10
2022-10-25T06:54:33.721Z,76.80
2022-10-25T06:59:34.525Z,76.66
2022-10-25T07:04:37.906Z,76.62
2022-10-25T07:09:40.828Z,75.59
2022-10-25T07:14:41.639Z,75.52
2022-10-25T07:19:43.857Z,74.33
2022-10-25T07:24:44.663Z,72.68
2022-10-25T07:29:45.614Z,71.34
2022-10-25T07:34:47.816Z,69.75
2022-10-25T07:39:48.647Z,69.31
2022-10-25T07:44:49.434Z,68.54
2022-10-25T07:49:51.581Z,67.96
2022-10-25T07:54:52.353Z,67.16
2022-10-25T07:59:53.166Z,66.28
2022-10-25T08:04:55.373Z,66.82
2022-10-25T08:09:56.206Z,64.73
2022-10-25T08:14:57.076Z,64.90
2022-10-25T08:20:00.198Z,64.21
2022-10-25T08:25:01.431Z,62.99
2022-10-25T08:30:02.317Z,63.11
2022-10-25T08:35:04.829Z,62.59
2022-10-25T08:40:07.056Z,62.58
2022-10-25T08:45:17.392Z,62.64
2022-10-25T08:50:23.825Z,61.58
2022-10-25T08:55:34.056Z,61.88
2022-10-25T09:00:39.153Z,61.03
2022-10-25T09:05:43.850Z,60.99
2022-10-25T09:10:54.557Z,60.88
2022-10-25T09:16:04.510Z,60.28
2022-10-25T09:21:22.184Z,58.92
2022-10-25T09:26:34.416Z,59.27
2022-10-25T09:31:41.826Z,59.24
2022-10-25T09:36:47.255Z,59.20
2022-10-25T09:41:51.414Z,59.09
2022-10-25T09:46:55.781Z,58.94
2022-10-25T09:52:04.378Z,58.22
2022-10-25T09:57:05.487Z,60.04
2022-10-25T10:02:06.501Z,60.79
2022-10-25T10:07:15.745Z,61.22
2022-10-25T10:12:22.333Z,61.40
2022-10-25T10:17:24.257Z,61.18
2022-10-25T10:22:26.619Z,61.15
2022-10-25T10:27:29.279Z,60.07
2022-10-25T10:32:34.279Z,61.34
2022-10-25T10:37:37.952Z,60.61
2022-10-25T10:42:41.402Z,60.27
2022-10-25T10:47:45.475Z,60.12
2022-10-25T10:52:49.164Z,60.55
2022-10-25T10:57:53.086Z,60.24
2022-10-25T11:07:59.210Z,60.72
2022-10-25T11:13:15.981Z,60.31
2022-10-25T11:18:20.362Z,60.53
2022-10-25T11:23:31.483Z,59.56
2022-10-25T11:28:43.318Z,59.00
2022-10-25T11:33:54.165Z,56.72
2022-10-25T11:39:10.294Z,56.73
2022-10-25T11:44:45.682Z,57.63
2022-10-25T11:49:59.851Z,57.74
2022-10-25T11:55:14.622Z,57.07
2022-10-25T12:00:18.243Z,57.63
2022-10-25T12:05:30.787Z,57.06
2022-10-25T12:10:37.015Z,57.31
2022-10-25T12:15:43.032Z,56.29
2022-10-25T12:20:46.845Z,56.04
2022-10-25T12:25:52.840Z,56.19
2022-10-25T12:31:02.002Z,54.76
2022-10-25T12:36:06.467Z,54.65
2022-10-25T12:41:16.154Z,55.16
2022-10-25T12:46:51.883Z,54.33
2022-10-25T12:52:07.950Z,53.63
2022-10-25T12:57:20.424Z,53.90
2022-10-25T13:03:10.233Z,53.84
2022-10-25T13:08:13.891Z,55.13
2022-10-25T13:13:22.812Z,56.21
2022-10-25T13:18:42.235Z,59.14
2022-10-25T13:23:59.932Z,61.05
2022-10-25T13:29:04.856Z,62.36
2022-10-25T13:34:31.735Z,61.48
2022-10-25T13:39:36.650Z,58.62
2022-10-25T13:44:51.448Z,56.35
2022-10-25T13:49:52.421Z,54.55
2022-10-25T13:54:57.635Z,54.56
2022-10-25T14:00:03.411Z,55.41
2022-10-25T14:05:13.358Z,54.44
2022-10-25T14:10:49.665Z,55.50
2022-10-25T14:15:57.428Z,56.52
2022-10-25T14:21:02.913Z,56.51
2022-10-25T14:26:06.184Z,55.91
2022-10-25T14:31:13.077Z,56.23
2022-10-25T14:36:26.407Z,56.89
2022-10-25T14:41:28.737Z,57.48
2022-10-25T14:46:33.541Z,57.59
2022-10-25T14:51:38.167Z,57.63
2022-10-25T14:56:41.811Z,58.42
2022-10-25T15:01:53.369Z,59.49
2022-10-25T15:06:54.422Z,60.74
2022-10-25T15:12:19.559Z,61.49
2022-10-25T15:17:28.473Z,62.55
2022-10-25T15:22:30.625Z,63.32
2022-10-25T15:27:40.420Z,63.69
2022-10-25T15:32:42.762Z,64.55
2022-10-25T15:37:43.593Z,65.71
2022-10-25T15:42:44.530Z,67.21
2022-10-25T15:47:47.616Z,68.38
2022-10-25T15:52:48.744Z,68.96
2022-10-25T15:57:50.577Z,70.49
2022-10-25T16:02:53.197Z,71.51
2022-10-25T16:07:54.498Z,72.72
2022-10-25T16:12:59.624Z,74.26
2022-10-25T16:18:01.945Z,74.77
2022-10-25T16:23:02.825Z,76.03
2022-10-25T16:28:03.746Z,75.69
2022-10-25T16:33:06.096Z,76.54
2022-10-25T16:38:07.698Z,76.68
2022-10-25T16:43:12.028Z,77.25
2022-10-25T16:48:14.271Z,77.97
2022-10-25T16:53:15.995Z,78.39
2022-10-25T16:58:16.834Z,78.21
2022-10-25T17:03:19.427Z,78.66
2022-10-25T17:08:20.311Z,79.02
2022-10-25T17:13:21.568Z,80.81
2022-10-25T17:18:26.926Z,79.54
2022-10-25T17:23:27.776Z,79.15
2022-10-25T17:28:28.720Z,78.77
2022-10-25T17:33:32.744Z,78.70
2022-10-25T17:38:33.633Z,79.77
2022-10-25T17:43:35.743Z,80.29
2022-10-25T17:48:37.925Z,78.69
2022-10-25T17:53:38.890Z,78.81
2022-10-25T17:58:41.551Z,79.41
2022-10-25T18:03:43.790Z,79.47
2022-10-25T18:08:45.425Z,81.57
2022-10-25T18:13:46.878Z,81.35
2022-10-25T18:18:49.318Z,82.73
2022-10-25T18:23:50.350Z,82.20
2022-10-25T18:28:51.215Z,83.30
2022-10-25T18:33:55.220Z,82.77
2022-10-25T18:38:56.526Z,83.30
2022-10-25T18:43:58.568Z,83.03
2022-10-25T18:49:00.789Z,83.85
2022-10-25T18:54:02.895Z,84.36
2022-10-25T18:59:03.938Z,85.03
2022-10-25T19:04:06.431Z,85.47
2022-10-25T19:09:07.299Z,85.16
2022-10-25T19:14:08.151Z,85.76
2022-10-25T19:19:11.967Z,85.79
2022-10-25T19:24:15.849Z,85.68
2022-10-25T19:29:17.014Z,86.10
2022-10-25T19:34:19.344Z,86.30
2022-10-25T19:39:20.150Z,85.55
2022-10-25T19:44:21.013Z,85.96
2022-10-25T19:49:23.167Z,86.49
2022-10-25T19:54:23.967Z,85.71
2022-10-25T19:59:24.911Z,86.10
2022-10-25T20:04:27.255Z,85.49
2022-10-25T20:09:28.189Z,86.26
2022-10-25T20:14:30.812Z,85.71
2022-10-25T20:19:33.293Z,84.33
2022-10-25T20:24:34.201Z,85.29
2022-10-25T20:29:35.016Z,85.82
2022-10-25T20:34:37.499Z,85.25
2022-10-25T20:39:38.281Z,85.54
2022-10-25T20:44:39.066Z,86.20
2022-10-25T20:49:41.300Z,84.98
2022-10-25T20:54:42.285Z,85.49
2022-10-25T20:59:43.169Z,85.80
2022-10-25T21:04:53.355Z,86.41
2022-10-25T21:09:54.722Z,85.67
2022-10-25T21:14:55.537Z,86.44
2022-10-25T21:19:57.700Z,86.07
2022-10-25T21:24:58.685Z,85.46
2022-10-25T21:29:59.440Z,85.78
2022-10-25T21:35:01.762Z,86.66
2022-10-25T21:40:02.543Z,86.67
2022-10-25T21:45:03.333Z,86.39
2022-10-25T21:50:05.902Z,86.35
2022-10-25T21:55:07.786Z,87.15
2022-10-25T22:00:10.315Z,87.38
2022-10-25T22:05:15.268Z,86.99
2022-10-25T22:10:16.634Z,86.98
2022-10-25T22:15:17.661Z,86.82
2022-10-25T22:20:19.903Z,87.17
2022-10-25T22:25:20.983Z,87.49
2022-10-25T22:30:22.451Z,87.75
2022-10-25T22:35:25.197Z,87.49
2022-10-25T22:40:26.000Z,87.67
2022-10-25T22:45:26.770Z,87.96
2022-10-25T22:50:28.992Z,87.91
2022-10-25T22:55:29.871Z,87.41
2022-10-25T23:00:30.637Z,88.06
2022-10-25T23:05:32.865Z,87.71
2022-10-25T23:10:33.726Z,88.34
2022-10-25T23:15:34.597Z,88.46
2022-10-25T23:20:36.745Z,88.41
2022-10-25T23:25:37.574Z,88.36
2022-10-25T23:30:38.450Z,88.61
2022-10-25T23:35:42.149Z,88.28
2022-10-25T23:40:47.724Z,88.78
2022-10-25T23:45:48.758Z,88.80
2022-10-25T23:50:57.465Z,88.93
2022-10-25T23:55:58.563Z,88.99
